Time;durP1;ratioP1;P1;durP2;ratioP2;P2;SDS_P1;SDS_P2;PMS_P1;PMS_P2;Temp;Humidity;BMP_temperature;BMP_pressure;BME280_temperature;BME280_humidity;BME280_pressure;Samples;Min_cycle;Max_cycle;Signal;HPM_P1;HPM_P2
2021/09/13 00:02:28;;;;;;;18.08;9.70;;;;;;;12.30;66.87;96292.16;5053107;28;20090;-67
2021/09/13 00:04:54;;;;;;;16.05;9.60;;;;;;;12.33;67.34;96294.63;5044035;28;20434;-66
2021/09/13 00:07:19;;;;;;;17.08;9.40;;;;;;;12.26;67.94;96294.09;5053092;28;20025;-65
2021/09/13 00:09:45;;;;;;;17.50;9.68;;;;;;;12.34;67.58;96291.09;5053199;28;20029;-67
2021/09/13 00:12:10;;;;;;;19.17;10.20;;;;;;;12.32;67.51;96288.56;5051391;28;20489;-67
2021/09/13 00:14:36;;;;;;;16.73;10.50;;;;;;;12.28;67.59;96292.22;5052978;28;20078;-64
2021/09/13 00:17:01;;;;;;;16.70;9.23;;;;;;;12.33;67.87;96292.00;5052836;28;20031;-69
2021/09/13 00:19:27;;;;;;;14.90;9.38;;;;;;;12.28;67.74;96292.22;5052956;28;20475;-64
2021/09/13 00:21:53;;;;;;;15.18;9.95;;;;;;;12.19;67.99;96282.22;5049446;28;20067;-67
2021/09/13 00:24:18;;;;;;;15.85;9.75;;;;;;;12.19;68.16;96275.19;5032962;28;20033;-66
2021/09/13 00:26:44;;;;;;;18.75;9.45;;;;;;;12.22;68.40;96282.06;5033033;28;20028;-66
2021/09/13 00:29:09;;;;;;;21.10;10.45;;;;;;;12.24;68.55;96288.06;5033067;28;20036;-65
2021/09/13 00:31:35;;;;;;;16.13;9.55;;;;;;;12.27;68.67;96280.06;5032985;28;20018;-65
2021/09/13 00:34:01;;;;;;;20.73;10.68;;;;;;;12.33;68.83;96277.13;5035636;28;20119;-64
2021/09/13 00:36:26;;;;;;;16.70;10.07;;;;;;;12.27;68.24;96282.69;5052780;28;20051;-65
2021/09/13 00:38:54;;;;;;;23.35;10.43;;;;;;;12.28;68.98;96276.50;5052889;28;20025;-65
2021/09/13 00:41:19;;;;;;;17.50;9.95;;;;;;;12.34;68.78;96283.25;5052885;28;20025;-65
2021/09/13 00:43:45;;;;;;;15.75;10.27;;;;;;;12.39;68.71;96275.97;5056159;28;20036;-65
2021/09/13 00:46:11;;;;;;;17.10;10.20;;;;;;;12.41;68.68;96275.91;5055134;28;20490;-64
2021/09/13 00:48:36;;;;;;;16.38;9.48;;;;;;;12.36;69.00;96270.88;5037034;28;20467;-66
2021/09/13 00:51:02;;;;;;;21.23;10.60;;;;;;;12.38;68.75;96272.50;5036828;28;20021;-63
2021/09/13 00:53:27;;;;;;;16.35;10.10;;;;;;;12.38;68.72;96276.91;5036922;28;20025;-66
2021/09/13 00:55:54;;;;;;;19.45;9.90;;;;;;;12.37;68.62;96275.19;5036624;28;20088;-64
2021/09/13 00:58:24;;;;;;;15.40;9.40;;;;;;;12.35;68.71;96270.06;5036509;28;20037;-64
2021/09/13 01:00:50;;;;;;;20.70;11.15;;;;;;;12.34;68.78;96273.56;5054510;28;20090;-66
2021/09/13 01:03:15;;;;;;;17.17;10.50;;;;;;;12.38;68.87;96282.16;5056326;28;20033;-65
2021/09/13 01:05:41;;;;;;;18.02;11.02;;;;;;;12.34;69.02;96264.88;5056284;28;20028;-64
2021/09/13 01:08:06;;;;;;;17.15;9.40;;;;;;;12.30;68.90;96269.41;5056440;28;20032;-65
2021/09/13 01:10:32;;;;;;;13.93;9.88;;;;;;;12.24;69.35;96277.59;5056271;28;20056;-63
2021/09/13 01:12:57;;;;;;;17.75;10.57;;;;;;;12.19;69.38;96275.19;5054395;28;20032;-65
2021/09/13 01:15:23;;;;;;;18.08;9.75;;;;;;;12.24;69.32;96272.34;5056081;28;20032;-65
2021/09/13 01:17:48;;;;;;;15.02;10.40;;;;;;;12.19;69.33;96263.88;5056037;28;20029;-66
2021/09/13 01:20:14;;;;;;;16.95;11.23;;;;;;;12.22;69.31;96274.19;5056221;28;20055;-62
2021/09/13 01:22:42;;;;;;;20.42;11.35;;;;;;;12.19;69.43;96271.72;5056138;28;20032;-65
2021/09/13 01:25:08;;;;;;;15.38;10.15;;;;;;;12.05;69.20;96257.47;5052672;28;20025;-63
2021/09/13 01:27:34;;;;;;;17.63;10.82;;;;;;;12.13;69.94;96273.72;5056000;28;20029;-66
2021/09/13 01:29:59;;;;;;;22.65;10.80;;;;;;;12.10;69.79;96286.13;5055939;28;20467;-66
2021/09/13 01:32:25;;;;;;;13.18;10.10;;;;;;;12.07;69.40;96283.66;5045089;28;20071;-63
2021/09/13 01:34:50;;;;;;;17.65;10.38;;;;;;;12.09;69.44;96284.41;5036004;28;20352;-63
2021/09/13 01:37:16;;;;;;;16.95;10.32;;;;;;;12.09;69.58;96281.78;5042853;28;20360;-66
2021/09/13 01:39:41;;;;;;;22.05;10.68;;;;;;;12.10;69.75;96286.97;5055837;28;20025;-65
2021/09/13 01:42:07;;;;;;;19.45;11.25;;;;;;;12.12;69.66;96289.50;5055799;28;20433;-64
2021/09/13 01:44:32;;;;;;;19.00;10.77;;;;;;;12.17;69.43;96289.28;5055804;28;20096;-65
2021/09/13 01:46:58;;;;;;;19.73;11.10;;;;;;;12.15;69.52;96289.38;5055887;28;20471;-65
2021/09/13 01:49:23;;;;;;;21.17;11.40;;;;;;;12.19;69.50;96283.03;5050558;28;20052;-64
2021/09/13 01:51:49;;;;;;;16.63;10.88;;;;;;;12.24;69.49;96293.31;5035741;28;20379;-62
2021/09/13 01:54:15;;;;;;;19.98;11.15;;;;;;;12.19;69.25;96293.53;5035651;28;20029;-64
2021/09/13 01:56:40;;;;;;;19.67;11.18;;;;;;;12.13;70.03;96296.44;5035301;28;20363;-64
2021/09/13 01:59:06;;;;;;;18.63;10.73;;;;;;;12.10;69.80;96296.63;5035316;28;20050;-63
2021/09/13 02:01:31;;;;;;;18.88;10.93;;;;;;;12.15;70.01;96293.75;5036345;28;20122;-64
2021/09/13 02:03:57;;;;;;;20.17;10.85;;;;;;;12.20;69.94;96294.41;5035506;28;20096;-63
2021/09/13 02:06:23;;;;;;;17.67;11.10;;;;;;;12.19;69.70;96301.41;5035313;28;20021;-63
2021/09/13 02:08:48;;;;;;;16.63;10.73;;;;;;;12.24;69.78;96294.19;5035267;28;20022;-64
2021/09/13 02:11:14;;;;;;;20.15;10.23;;;;;;;12.24;69.96;96299.41;5035213;28;20079;-63
2021/09/13 02:13:40;;;;;;;22.17;11.35;;;;;;;12.28;69.94;96297.47;5036147;28;20021;-62
2021/09/13 02:16:07;;;;;;;21.15;10.93;;;;;;;12.30;70.00;96300.03;5034949;28;20049;-66
2021/09/13 02:18:33;;;;;;;19.20;11.02;;;;;;;12.34;69.29;96301.59;5035123;28;20018;-66
2021/09/13 02:20:59;;;;;;;30.92;10.98;;;;;;;12.33;69.98;96297.25;5035056;28;20022;-64
2021/09/13 02:23:24;;;;;;;20.35;11.18;;;;;;;12.26;69.69;96301.97;5035113;28;20071;-64
2021/09/13 02:25:50;;;;;;;21.95;11.38;;;;;;;12.25;69.84;96302.88;5038762;28;20471;-66
2021/09/13 02:28:16;;;;;;;15.88;10.88;;;;;;;12.27;69.99;96295.78;5054852;28;20116;-66
2021/09/13 02:30:42;;;;;;;18.80;11.73;;;;;;;12.23;69.82;96300.34;5054953;28;20035;-64
2021/09/13 02:33:08;;;;;;;22.88;11.88;;;;;;;12.21;69.87;96296.94;5054938;28;20025;-66
2021/09/13 02:35:34;;;;;;;15.82;10.45;;;;;;;12.22;70.25;96296.00;5054785;28;20027;-66
2021/09/13 02:37:59;;;;;;;18.48;11.32;;;;;;;12.22;70.18;96301.25;5050429;28;20121;-64
2021/09/13 02:40:25;;;;;;;24.95;11.27;;;;;;;12.21;70.07;96299.56;5034825;28;20021;-65
2021/09/13 02:42:50;;;;;;;19.83;11.07;;;;;;;12.23;70.08;96295.09;5034759;28;20030;-65
2021/09/13 02:45:16;;;;;;;17.50;11.57;;;;;;;12.19;69.84;96292.72;5034775;28;20108;-64
2021/09/13 02:47:43;;;;;;;19.98;11.48;;;;;;;12.15;70.18;96291.13;5034665;28;20426;-65
2021/09/13 02:50:10;;;;;;;17.23;11.15;;;;;;;12.15;70.10;96302.47;5035238;28;20056;-66
2021/09/13 02:52:36;;;;;;;18.10;11.32;;;;;;;12.11;69.66;96301.78;5054472;28;20021;-66
2021/09/13 02:55:03;;;;;;;30.30;11.50;;;;;;;12.10;70.22;96296.63;5054426;28;20021;-65
2021/09/13 02:57:28;;;;;;;17.05;11.07;;;;;;;12.12;70.00;96294.75;5051180;28;20025;-63
2021/09/13 02:59:54;;;;;;;19.73;10.70;;;;;;;12.04;70.28;96289.84;5034129;28;20075;-65
2021/09/13 03:02:19;;;;;;;20.08;11.93;;;;;;;12.04;70.44;96283.78;5034289;28;20482;-63
2021/09/13 03:04:45;;;;;;;17.88;11.73;;;;;;;12.06;70.27;96287.16;5050749;28;20021;-66
2021/09/13 03:07:12;;;;;;;21.65;11.77;;;;;;;12.06;70.20;96279.28;5054224;28;20033;-64
2021/09/13 03:09:38;;;;;;;22.30;13.02;;;;;;;12.03;70.60;96287.28;5054133;28;20025;-62
2021/09/13 03:12:04;;;;;;;21.92;11.75;;;;;;;11.95;70.17;96282.44;5054159;28;20550;-66
2021/09/13 03:14:31;;;;;;;18.73;12.07;;;;;;;11.99;70.89;96286.63;5054055;28;20028;-65
2021/09/13 03:16:57;;;;;;;22.30;11.65;;;;;;;11.98;70.58;96285.75;5035708;28;20038;-66
2021/09/13 03:19:23;;;;;;;29.92;12.18;;;;;;;11.95;70.58;96290.31;5033977;28;20072;-63
2021/09/13 03:21:49;;;;;;;19.30;11.98;;;;;;;11.88;70.85;96282.72;5033908;28;20036;-64
2021/09/13 03:24:14;;;;;;;27.58;12.32;;;;;;;11.87;71.09;96288.88;5032740;28;20014;-65
2021/09/13 03:26:40;;;;;;;24.52;12.48;;;;;;;11.88;71.07;96293.22;5033893;28;20105;-66
2021/09/13 03:29:06;;;;;;;27.30;12.32;;;;;;;11.88;71.00;96298.47;5034880;28;20104;-66
2021/09/13 03:31:31;;;;;;;24.50;12.98;;;;;;;11.82;70.76;96296.13;5033871;28;20021;-65
2021/09/13 03:33:57;;;;;;;26.45;12.32;;;;;;;11.83;71.29;96299.59;5033801;28;20079;-65
2021/09/13 03:36:22;;;;;;;20.23;12.10;;;;;;;11.84;71.24;96294.28;5033527;28;20025;-63
2021/09/13 03:38:48;;;;;;;21.75;12.25;;;;;;;11.84;71.05;96298.66;5033649;28;20076;-64
2021/09/13 03:41:14;;;;;;;23.95;13.95;;;;;;;11.84;71.34;96304.78;5034683;28;20029;-66
2021/09/13 03:43:39;;;;;;;24.35;13.48;;;;;;;11.83;71.26;96299.59;5033896;28;20020;-64
2021/09/13 03:46:05;;;;;;;23.33;12.63;;;;;;;11.88;71.09;96303.69;5033642;28;20411;-63
2021/09/13 03:48:30;;;;;;;21.27;13.10;;;;;;;11.93;71.08;96297.38;5033684;28;20025;-65
2021/09/13 03:50:56;;;;;;;24.42;12.48;;;;;;;11.95;70.77;96300.78;5033456;28;20026;-64
2021/09/13 03:53:21;;;;;;;23.70;13.77;;;;;;;11.97;71.28;96307.66;5034436;28;20024;-64
2021/09/13 03:55:47;;;;;;;22.45;12.57;;;;;;;11.98;71.19;96308.50;5033388;28;20368;-64
2021/09/13 03:58:13;;;;;;;20.80;13.27;;;;;;;11.90;71.48;96316.72;5033042;28;20116;-65
2021/09/13 04:00:38;;;;;;;20.92;12.90;;;;;;;11.95;71.43;96312.09;5033432;28;20059;-65
2021/09/13 04:03:06;;;;;;;23.85;13.45;;;;;;;12.01;71.42;96317.06;5033300;28;20017;-64
2021/09/13 04:05:33;;;;;;;34.33;13.73;;;;;;;12.05;71.74;96320.41;5033165;28;20022;-65
2021/09/13 04:08:08;;;;;;;28.35;14.40;;;;;;;12.10;71.75;96314.97;5050242;28;20051;-66
2021/09/13 04:13:03;;;;;;;32.95;13.85;;;;;;;12.17;71.97;96316.38;5053102;28;20036;-66
2021/09/13 04:15:29;;;;;;;35.67;15.00;;;;;;;12.24;71.67;96320.41;5053031;28;20353;-63
2021/09/13 04:17:54;;;;;;;30.90;15.15;;;;;;;12.24;71.55;96320.41;5052109;28;20072;-64
2021/09/13 04:20:20;;;;;;;33.75;14.32;;;;;;;12.31;71.87;96320.09;5038843;28;20025;-64
2021/09/13 04:22:45;;;;;;;26.92;14.25;;;;;;;12.38;71.46;96314.47;5033096;28;20479;-64
2021/09/13 04:25:11;;;;;;;26.20;13.32;;;;;;;12.48;71.22;96314.03;5033021;28;20420;-65
2021/09/13 04:27:36;;;;;;;27.67;14.23;;;;;;;12.58;70.95;96317.88;5036871;28;20025;-65
2021/09/13 04:30:02;;;;;;;32.25;14.15;;;;;;;12.68;70.91;96322.69;5052551;28;20021;-65
2021/09/13 04:32:28;;;;;;;29.13;14.27;;;;;;;12.81;70.86;96320.28;5052834;28;20032;-64
2021/09/13 04:34:54;;;;;;;32.90;15.32;;;;;;;12.93;70.46;96319.66;5052835;28;20476;-67
2021/09/13 04:37:19;;;;;;;34.20;16.02;;;;;;;13.13;70.47;96323.06;5046777;28;20026;-64
2021/09/13 04:39:45;;;;;;;38.72;14.30;;;;;;;13.45;70.58;96327.53;5032943;28;20026;-66
2021/09/13 04:42:10;;;;;;;29.95;12.63;;;;;;;13.86;69.39;96326.25;5041911;28;20419;-64
2021/09/13 04:44:38;;;;;;;27.73;13.38;;;;;;;14.38;68.69;96327.78;5041588;28;20094;-65
2021/09/13 04:47:04;;;;;;;31.25;13.48;;;;;;;14.94;66.55;96322.91;5052407;28;20025;-64
2021/09/13 04:49:29;;;;;;;26.45;12.95;;;;;;;15.51;65.15;96322.09;5052834;28;20505;-63
2021/09/13 04:51:55;;;;;;;32.47;12.23;;;;;;;16.18;64.34;96330.34;5052744;28;20029;-67
2021/09/13 04:54:20;;;;;;;34.53;12.60;;;;;;;16.82;61.80;96328.03;5052449;28;20487;-65
2021/09/13 04:56:46;;;;;;;59.20;13.55;;;;;;;17.47;59.73;96333.38;5052558;28;20475;-63
2021/09/13 04:59:12;;;;;;;65.20;15.32;;;;;;;18.06;57.87;96330.09;5052377;28;20037;-65
2021/09/13 05:01:37;;;;;;;68.38;14.57;;;;;;;18.68;57.25;96342.50;5052661;28;20025;-67
2021/09/13 05:04:06;;;;;;;43.55;12.77;;;;;;;19.23;56.27;96338.50;5052553;28;20483;-65
2021/09/13 05:06:32;;;;;;;46.97;13.85;;;;;;;19.85;54.39;96338.16;5052583;28;20037;-67
2021/09/13 05:08:57;;;;;;;52.65;12.23;;;;;;;20.39;53.25;96335.69;5052589;28;20029;-67
2021/09/13 05:11:23;;;;;;;35.55;11.68;;;;;;;20.89;51.40;96335.16;5052485;28;20029;-66
2021/09/13 05:13:51;;;;;;;25.30;10.27;;;;;;;21.40;50.04;96345.19;5052529;28;20025;-67
2021/09/13 05:16:16;;;;;;;21.73;9.65;;;;;;;21.88;48.65;96343.75;5052516;28;20063;-63
2021/09/13 05:18:42;;;;;;;15.30;9.48;;;;;;;22.39;47.13;96349.09;5052470;28;20428;-63
2021/09/13 05:21:07;;;;;;;20.40;10.02;;;;;;;22.81;47.02;96349.84;5052454;28;20075;-67
2021/09/13 05:23:33;;;;;;;21.20;9.43;;;;;;;23.26;46.59;96352.94;5052381;28;20037;-63
2021/09/13 05:25:58;;;;;;;21.48;10.52;;;;;;;23.69;44.52;96348.09;5052315;28;20040;-67
2021/09/13 05:28:24;;;;;;;20.08;9.68;;;;;;;24.10;43.25;96345.94;5053299;28;20021;-65
2021/09/13 05:30:50;;;;;;;22.40;9.57;;;;;;;24.54;43.48;96348.94;5056223;28;20021;-67
2021/09/13 05:33:17;;;;;;;17.20;9.48;;;;;;;24.93;42.50;96350.53;5055978;28;20032;-68
2021/09/13 05:35:42;;;;;;;18.80;9.27;;;;;;;25.38;41.59;96346.03;5055969;28;20029;-63
2021/09/13 05:38:09;;;;;;;16.65;9.70;;;;;;;25.86;41.51;96357.22;5055877;28;20032;-62
2021/09/13 05:40:35;;;;;;;16.25;10.02;;;;;;;26.36;41.61;96356.59;5055915;28;20031;-64
2021/09/13 05:43:05;;;;;;;19.65;9.45;;;;;;;26.85;40.30;96361.25;5055815;28;20108;-66
2021/09/13 05:45:31;;;;;;;13.68;8.98;;;;;;;27.29;38.78;96369.16;5054766;28;20032;-62
2021/09/13 05:47:57;;;;;;;17.75;9.38;;;;;;;27.66;38.73;96367.00;5055679;28;20017;-66
2021/09/13 05:50:22;;;;;;;12.70;9.73;;;;;;;27.73;33.96;96365.28;5055641;28;20036;-66
2021/09/13 05:52:48;;;;;;;15.52;8.88;;;;;;;28.11;35.20;96370.06;5055667;28;20017;-64
2021/09/13 05:55:14;;;;;;;16.60;9.70;;;;;;;28.47;34.85;96374.13;5055676;28;20037;-64
2021/09/13 05:57:39;;;;;;;12.57;8.82;;;;;;;28.82;32.71;96376.44;5055504;28;20537;-62
2021/09/13 06:00:06;;;;;;;16.40;9.50;;;;;;;29.26;33.98;96381.19;5055311;28;20208;-65
2021/09/13 06:02:32;;;;;;;17.70;8.75;;;;;;;29.63;32.06;96381.41;5055447;28;20036;-65
2021/09/13 06:04:57;;;;;;;30.67;9.95;;;;;;;29.84;31.05;96379.00;5054123;28;20033;-64
2021/09/13 06:07:23;;;;;;;22.42;8.93;;;;;;;30.07;33.01;96375.38;5055435;28;20375;-65
2021/09/13 06:09:49;;;;;;;16.60;9.30;;;;;;;30.30;30.31;96371.75;5055401;28;20025;-67
2021/09/13 06:12:16;;;;;;;13.02;8.63;;;;;;;30.43;32.43;96374.63;5055214;28;20104;-64
2021/09/13 06:14:43;;;;;;;17.90;9.20;;;;;;;30.60;31.98;96388.75;5055242;28;20043;-68
2021/09/13 06:17:10;;;;;;;17.85;9.32;;;;;;;30.68;31.77;96384.25;5055401;28;20425;-65
2021/09/13 06:19:36;;;;;;;20.52;9.50;;;;;;;30.83;31.05;96385.09;5055157;28;20538;-65
2021/09/13 06:22:03;;;;;;;18.13;10.20;;;;;;;30.86;32.53;96387.41;5055190;28;20117;-68
2021/09/13 06:24:29;;;;;;;15.57;9.55;;;;;;;30.91;31.67;96388.69;5054987;28;20032;-65
2021/09/13 06:26:55;;;;;;;15.68;9.02;;;;;;;30.94;30.40;96394.53;5055126;28;20032;-65
2021/09/13 06:29:20;;;;;;;22.67;9.13;;;;;;;30.94;28.40;96397.22;5054923;28;20021;-64
2021/09/13 06:31:46;;;;;;;16.38;9.85;;;;;;;30.95;32.10;96400.78;5054975;28;20033;-65
2021/09/13 06:34:15;;;;;;;16.42;9.77;;;;;;;30.97;32.09;96399.53;5054805;28;20029;-66
2021/09/13 06:36:43;;;;;;;14.38;9.38;;;;;;;30.93;28.04;96405.50;5054769;28;20483;-65
2021/09/13 06:39:09;;;;;;;15.52;9.20;;;;;;;30.85;31.73;96401.91;5054635;28;20039;-65
2021/09/13 06:41:34;;;;;;;17.15;9.13;;;;;;;30.77;31.14;96400.19;5053920;28;20112;-64
2021/09/13 06:44:00;;;;;;;18.38;8.77;;;;;;;30.82;31.54;96405.00;5054703;28;20075;-64
2021/09/13 06:46:35;;;;;;;12.90;8.40;;;;;;;30.73;29.61;96404.25;5054775;28;20371;-68
2021/09/13 06:49:00;;;;;;;20.88;9.15;;;;;;;30.70;32.90;96401.91;5054576;28;20481;-64
2021/09/13 06:51:26;;;;;;;15.82;9.18;;;;;;;30.54;29.54;96402.13;5054559;28;20021;-63
2021/09/13 06:53:51;;;;;;;15.75;9.48;;;;;;;30.54;32.36;96405.69;5054507;28;20029;-65
2021/09/13 06:56:19;;;;;;;12.57;9.40;;;;;;;30.59;29.30;96400.56;5054333;28;20379;-68
2021/09/13 06:58:44;;;;;;;17.02;9.07;;;;;;;30.66;29.27;96403.34;5054073;28;20041;-63
2021/09/13 07:01:10;;;;;;;16.85;9.52;;;;;;;30.79;29.29;96402.66;5054401;28;20029;-64
2021/09/13 07:03:35;;;;;;;18.20;10.32;;;;;;;30.81;29.07;96405.19;5054292;28;20032;-62
2021/09/13 07:06:02;;;;;;;16.63;10.05;;;;;;;30.94;29.21;96404.50;5054192;28;20047;-64
2021/09/13 07:08:27;;;;;;;16.40;10.05;;;;;;;31.06;29.07;96402.94;5054244;28;20025;-64
2021/09/13 07:10:54;;;;;;;12.48;8.70;;;;;;;31.20;30.45;96403.09;5054208;28;20055;-67
2021/09/13 07:13:20;;;;;;;19.00;10.15;;;;;;;31.34;30.92;96410.31;5054063;28;20026;-64
2021/09/13 07:15:46;;;;;;;16.88;9.20;;;;;;;31.52;31.08;96411.72;5053968;28;20059;-65
2021/09/13 07:18:13;;;;;;;13.90;9.15;;;;;;;31.61;30.92;96409.72;5053854;28;20033;-64
2021/09/13 07:20:40;;;;;;;20.20;8.85;;;;;;;31.31;27.56;96404.44;5053953;28;20112;-64
2021/09/13 07:23:05;;;;;;;17.10;8.93;;;;;;;30.94;27.54;96401.81;5053901;28;20032;-63
2021/09/13 07:25:31;;;;;;;18.25;9.38;;;;;;;30.60;27.29;96404.94;5053968;28;20062;-63
2021/09/13 07:27:57;;;;;;;19.42;9.32;;;;;;;30.36;28.02;96403.38;5053862;28;20021;-67
2021/09/13 07:30:22;;;;;;;19.42;9.38;;;;;;;30.26;28.93;96407.22;5053707;28;20020;-62
2021/09/13 07:32:48;;;;;;;15.63;9.25;;;;;;;30.00;28.75;96400.38;5053693;28;20021;-64
2021/09/13 07:35:14;;;;;;;19.58;9.50;;;;;;;29.71;29.23;96406.59;5053781;28;20052;-67
2021/09/13 07:37:40;;;;;;;17.67;9.30;;;;;;;29.82;30.46;96408.81;5053467;28;20138;-65
2021/09/13 07:40:07;;;;;;;14.50;10.18;;;;;;;29.62;28.68;96412.03;5053606;28;20029;-64
2021/09/13 07:42:33;;;;;;;15.90;9.70;;;;;;;28.94;28.87;96415.41;5053485;28;20150;-64
2021/09/13 07:44:59;;;;;;;18.45;9.93;;;;;;;28.55;30.16;96410.88;5053580;28;20108;-63
2021/09/13 07:47:25;;;;;;;15.23;9.25;;;;;;;28.66;30.42;96412.34;5053470;28;20031;-65
2021/09/13 07:49:51;;;;;;;20.10;9.63;;;;;;;28.93;31.59;96415.56;5053382;28;20021;-64
2021/09/13 07:52:16;;;;;;;23.52;8.80;;;;;;;29.20;29.15;96410.69;5053296;28;20368;-64
2021/09/13 07:54:42;;;;;;;21.98;9.77;;;;;;;28.93;30.92;96413.75;5053447;28;20021;-64
2021/09/13 07:57:08;;;;;;;14.60;9.95;;;;;;;28.96;31.12;96418.75;5053287;28;20086;-65
2021/09/13 07:59:34;;;;;;;20.58;9.55;;;;;;;29.02;30.15;96409.16;5053024;28;20479;-65
2021/09/13 08:01:59;;;;;;;15.80;9.90;;;;;;;28.72;29.62;96409.78;5053283;28;20033;-63
2021/09/13 08:04:25;;;;;;;17.30;9.45;;;;;;;28.60;30.34;96408.53;5053168;28;20033;-63
2021/09/13 08:06:51;;;;;;;19.75;10.90;;;;;;;28.67;33.33;96411.31;5053154;28;20470;-62
2021/09/13 08:09:16;;;;;;;17.17;9.18;;;;;;;28.65;31.23;96414.19;5053212;28;20017;-64
2021/09/13 08:11:43;;;;;;;15.70;10.05;;;;;;;28.73;30.34;96421.38;5053134;28;20379;-65
2021/09/13 08:14:08;;;;;;;19.77;9.48;;;;;;;28.53;31.46;96405.69;5053125;28;20029;-60
2021/09/13 08:16:34;;;;;;;16.58;9.40;;;;;;;28.64;29.98;96420.59;5053018;28;20040;-61
2021/09/13 08:19:00;;;;;;;13.80;9.77;;;;;;;28.29;32.12;96412.00;5052947;28;20036;-62
2021/09/13 08:21:27;;;;;;;20.63;10.23;;;;;;;28.21;31.58;96411.00;5052963;28;20103;-64
2021/09/13 08:23:54;;;;;;;19.25;9.70;;;;;;;28.28;31.99;96421.91;5052992;28;20048;-63
2021/09/13 08:26:21;;;;;;;20.42;10.77;;;;;;;27.98;31.18;96422.50;5052972;28;20479;-64
2021/09/13 08:28:46;;;;;;;18.00;9.68;;;;;;;27.88;31.91;96422.66;5052983;28;20028;-62
2021/09/13 08:31:12;;;;;;;18.17;10.05;;;;;;;27.45;31.14;96420.16;5052869;28;20391;-62
2021/09/13 08:33:37;;;;;;;15.38;10.18;;;;;;;27.55;32.38;96411.97;5052975;28;20090;-61
2021/09/13 08:36:04;;;;;;;14.07;9.63;;;;;;;27.62;32.67;96420.16;5052808;28;20471;-61
2021/09/13 08:38:30;;;;;;;17.23;9.45;;;;;;;27.74;30.98;96415.31;5052864;28;20516;-62
2021/09/13 08:40:56;;;;;;;13.63;10.00;;;;;;;27.80;30.53;96422.69;5052756;28;20104;-62
2021/09/13 08:43:22;;;;;;;16.05;10.07;;;;;;;27.46;30.13;96424.56;5052754;28;20159;-64
2021/09/13 08:46:06;;;;;;;16.92;10.00;;;;;;;27.21;32.82;96426.41;5052652;28;20036;-61
2021/09/13 08:53:51;;;;;;;16.38;10.18;;;;;;;27.27;32.96;96419.50;5052764;28;20467;-64
2021/09/13 08:56:17;;;;;;;17.65;9.57;;;;;;;27.58;33.87;96419.69;5052597;28;20028;-63
2021/09/13 08:58:44;;;;;;;18.48;10.15;;;;;;;27.99;32.66;96420.66;5052320;28;20045;-63
2021/09/13 09:01:13;;;;;;;18.30;9.70;;;;;;;27.95;31.04;96411.22;5052646;28;20025;-62
2021/09/13 09:03:42;;;;;;;27.92;11.00;;;;;;;27.96;32.97;96410.25;5054151;28;20145;-59
2021/09/13 09:06:27;;;;;;;18.10;9.98;;;;;;;27.87;32.13;96421.00;5056552;28;20033;-60
2021/09/13 09:08:59;;;;;;;19.23;10.27;;;;;;;27.72;31.00;96417.34;5056467;28;20037;-62
2021/09/13 09:11:24;;;;;;;15.15;9.63;;;;;;;27.17;31.06;96409.78;5056352;28;20493;-62
2021/09/13 09:13:50;;;;;;;16.73;9.55;;;;;;;27.04;32.41;96407.59;5056295;28;20029;-61
2021/09/13 09:16:16;;;;;;;21.85;10.63;;;;;;;27.24;32.46;96409.97;5056250;28;20021;-63
2021/09/13 09:18:47;;;;;;;18.75;10.85;;;;;;;27.48;33.79;96416.34;5056231;28;20062;-63
2021/09/13 09:21:28;;;;;;;15.73;9.25;;;;;;;27.52;30.77;96398.88;5056239;28;20028;-60
2021/09/13 09:24:01;;;;;;;19.00;10.68;;;;;;;27.61;31.52;96408.59;5056253;28;20098;-64
2021/09/13 09:26:29;;;;;;;17.20;9.65;;;;;;;27.51;32.34;96407.91;5056214;28;20113;-64
2021/09/13 09:28:56;;;;;;;18.88;10.88;;;;;;;27.36;31.49;96408.59;5056107;28;20025;-61
2021/09/13 09:31:42;;;;;;;18.40;9.25;;;;;;;27.07;31.48;96419.81;5056000;28;20029;-62
2021/09/13 09:34:18;;;;;;;15.43;9.98;;;;;;;26.85;31.65;96401.47;5056110;28;20025;-63
2021/09/13 09:36:59;;;;;;;19.88;9.15;;;;;;;26.92;31.59;96411.56;5056043;28;20025;-61
2021/09/13 09:39:39;;;;;;;18.05;9.82;;;;;;;26.98;31.39;96403.72;5056006;28;20475;-62
2021/09/13 09:42:07;;;;;;;22.20;10.35;;;;;;;27.21;30.97;96400.38;5055897;28;20036;-60
2021/09/13 09:44:33;;;;;;;17.23;9.40;;;;;;;27.22;32.53;96398.53;5055790;28;20399;-63
2021/09/13 09:47:05;;;;;;;14.82;9.75;;;;;;;27.30;30.61;96398.53;5055784;28;20025;-63
2021/09/13 09:49:45;;;;;;;14.77;9.60;;;;;;;27.35;31.91;96406.06;5055705;28;20071;-64
2021/09/13 09:52:11;;;;;;;17.23;9.00;;;;;;;27.29;30.55;96404.06;5055838;28;20033;-62
2021/09/13 09:54:37;;;;;;;21.00;10.77;;;;;;;27.29;31.29;96404.06;5055608;28;20040;-64
2021/09/13 09:57:11;;;;;;;15.48;9.18;;;;;;;26.98;30.76;96397.50;5055475;28;20021;-63
2021/09/13 09:59:41;;;;;;;16.58;9.00;;;;;;;26.63;32.41;96397.56;5055323;28;20068;-62
2021/09/13 10:02:18;;;;;;;16.70;9.40;;;;;;;26.68;32.28;96408.66;5055506;28;20024;-62
2021/09/13 10:04:47;;;;;;;14.88;9.15;;;;;;;26.67;32.35;96406.97;5055515;28;20029;-62
2021/09/13 10:07:14;;;;;;;16.55;9.38;;;;;;;26.82;31.81;96409.84;5055488;28;20033;-62
2021/09/13 10:09:41;;;;;;;17.10;9.48;;;;;;;26.95;32.00;96392.44;5055414;28;20044;-62
2021/09/13 10:12:08;;;;;;;14.57;8.98;;;;;;;27.04;33.09;96393.31;5055332;28;20391;-63
2021/09/13 10:14:35;;;;;;;17.20;8.50;;;;;;;27.04;30.91;96387.94;5054346;28;20052;-62
2021/09/13 10:17:01;;;;;;;18.73;9.00;;;;;;;26.88;30.62;96400.34;5054909;28;20435;-63
2021/09/13 10:19:29;;;;;;;19.77;9.18;;;;;;;26.96;31.00;96391.44;5055107;28;20489;-63
2021/09/13 10:21:55;;;;;;;13.02;8.80;;;;;;;27.05;31.94;96386.94;5055034;28;20494;-62
2021/09/13 10:24:24;;;;;;;12.52;7.82;;;;;;;27.24;30.78;96391.97;5054999;28;20091;-65
2021/09/13 10:26:52;;;;;;;14.88;9.02;;;;;;;27.45;31.44;96384.44;5055009;28;20110;-64
2021/09/13 10:29:27;;;;;;;13.93;8.57;;;;;;;27.34;30.72;96394.53;5055130;28;20494;-63
2021/09/13 10:31:54;;;;;;;14.65;8.98;;;;;;;27.40;30.17;96394.84;5054947;28;20111;-63
2021/09/13 10:34:30;;;;;;;13.98;8.18;;;;;;;27.36;31.47;96394.34;5055017;28;20463;-65
2021/09/13 10:37:07;;;;;;;16.73;8.88;;;;;;;27.24;30.62;96386.63;5054716;28;20066;-65
2021/09/13 10:39:55;;;;;;;14.02;7.90;;;;;;;27.40;32.55;96387.63;5054777;28;20033;-65
2021/09/13 10:42:40;;;;;;;14.32;8.73;;;;;;;27.21;29.35;96395.00;5051344;28;20036;-62
2021/09/13 10:45:18;;;;;;;15.40;8.43;;;;;;;27.16;29.59;96385.78;5054809;28;20031;-64
2021/09/13 10:47:47;;;;;;;12.05;7.97;;;;;;;27.20;31.54;96379.91;5054685;28;20025;-63
2021/09/13 10:50:16;;;;;;;14.38;8.93;;;;;;;27.15;29.92;96379.56;5054533;28;20033;-64
2021/09/13 10:52:43;;;;;;;19.42;8.57;;;;;;;27.34;30.75;96385.63;5054634;28;20041;-65
2021/09/13 10:55:08;;;;;;;12.43;9.20;;;;;;;26.97;30.09;96385.06;5054453;28;20108;-64
2021/09/13 10:58:03;;;;;;;22.80;10.60;;;;;;;26.97;30.32;96374.34;5054266;28;20124;-63
2021/09/13 11:00:44;;;;;;;14.93;8.90;;;;;;;27.07;29.71;96375.06;5054423;28;20106;-64
2021/09/13 11:06:14;;;;;;;11.05;7.97;;;;;;;26.79;30.48;96379.84;5054374;28;20029;-63
2021/09/13 11:08:47;;;;;;;20.08;9.05;;;;;;;26.75;29.39;96366.78;5054294;28;20025;-62
2021/09/13 11:11:31;;;;;;;13.93;8.65;;;;;;;26.74;29.37;96378.50;5054180;28;20029;-61
2021/09/13 11:13:57;;;;;;;16.27;7.85;;;;;;;26.80;29.08;96363.59;5054128;28;20105;-62
2021/09/13 11:16:23;;;;;;;15.98;8.90;;;;;;;26.87;29.72;96366.44;5054054;28;20542;-61
2021/09/13 11:18:48;;;;;;;14.93;8.75;;;;;;;26.81;30.25;96365.25;5054153;28;20029;-65
2021/09/13 11:21:33;;;;;;;17.00;8.98;;;;;;;26.80;30.76;96363.59;5054027;28;20033;-62
2021/09/13 11:24:03;;;;;;;14.75;8.40;;;;;;;26.82;29.16;96368.78;5053919;28;20434;-64
2021/09/13 11:26:36;;;;;;;12.82;8.25;;;;;;;26.64;29.37;96364.41;5053564;28;20037;-64
2021/09/13 11:29:15;;;;;;;16.98;9.57;;;;;;;26.52;29.70;96368.38;5053856;28;20025;-61
2021/09/13 11:31:50;;;;;;;18.95;10.00;;;;;;;26.53;29.52;96362.88;5053829;28;20029;-61
2021/09/13 11:34:15;;;;;;;17.75;9.40;;;;;;;26.78;29.92;96354.03;5053774;28;20029;-63